Time;durP1;ratioP1;P1;durP2;ratioP2;P2;SDS_P1;SDS_P2;PMS_P1;PMS_P2;Temp;Humidity;BMP_temperature;BMP_pressure;BME280_temperature;BME280_humidity;BME280_pressure;Samples;Min_cycle;Max_cycle;Signal;HPM_P1;HPM_P2
2021/07/11 00:00:17;;;;;;;12.50;10.18;;;;;;;17.23;87.69;100886.59;5052338;28;20059;-85
2021/07/11 00:02:44;;;;;;;14.98;12.07;;;;;;;17.29;87.64;100880.25;5065389;28;20052;-85
2021/07/11 00:05:14;;;;;;;14.07;11.38;;;;;;;17.35;87.44;100880.03;5051764;28;20047;-83
2021/07/11 00:07:41;;;;;;;11.45;10.07;;;;;;;17.39;87.21;100880.81;5053532;28;20466;-85
2021/07/11 00:10:10;;;;;;;12.25;10.95;;;;;;;17.45;86.87;100886.75;5087306;28;20044;-85
2021/07/11 00:12:38;;;;;;;14.45;11.45;;;;;;;17.53;86.40;100882.09;5053134;28;20718;-86
2021/07/11 00:15:09;;;;;;;12.90;11.60;;;;;;;17.57;86.30;100877.53;5054903;28;21009;-85
2021/07/11 00:17:36;;;;;;;12.48;10.48;;;;;;;17.61;85.93;100880.94;5051973;28;20056;-86
2021/07/11 00:20:05;;;;;;;12.45;11.10;;;;;;;17.64;85.47;100879.06;5050496;28;20892;-85
2021/07/11 00:22:32;;;;;;;9.38;8.57;;;;;;;17.67;85.53;100878.94;5071379;28;20123;-85
2021/07/11 00:24:58;;;;;;;13.05;9.88;;;;;;;17.70;85.39;100880.59;5052550;28;20045;-85
2021/07/11 00:27:25;;;;;;;13.43;12.00;;;;;;;17.72;85.32;100877.91;5068512;28;20494;-85
2021/07/11 00:29:51;;;;;;;13.20;11.90;;;;;;;17.71;85.21;100877.03;5065669;28;20126;-85
2021/07/11 00:32:18;;;;;;;15.15;13.15;;;;;;;17.70;85.36;100877.97;5053366;28;20105;-85
2021/07/11 00:34:44;;;;;;;11.95;10.70;;;;;;;17.69;85.38;100879.75;5054617;28;20036;-85
2021/07/11 00:37:11;;;;;;;11.30;10.15;;;;;;;17.68;85.46;100885.13;5073341;28;20113;-85
2021/07/11 00:39:37;;;;;;;12.90;11.70;;;;;;;17.66;85.76;100881.63;5053783;28;20048;-85
2021/07/11 00:42:05;;;;;;;12.20;10.95;;;;;;;17.65;85.42;100880.78;5068413;28;20067;-84
2021/07/11 00:44:31;;;;;;;10.45;9.45;;;;;;;17.63;85.44;100876.47;5087415;28;20036;-85
2021/07/11 00:46:58;;;;;;;12.77;11.45;;;;;;;17.62;85.58;100882.66;5067915;28;20133;-85
2021/07/11 00:49:24;;;;;;;13.07;11.45;;;;;;;17.60;85.61;100879.19;5070068;28;20044;-85
2021/07/11 00:51:51;;;;;;;12.52;10.40;;;;;;;17.59;85.86;100888.09;5070378;28;20040;-86
2021/07/11 00:54:17;;;;;;;22.00;13.20;;;;;;;17.60;85.75;100884.50;5083123;28;20044;-85
2021/07/11 00:56:44;;;;;;;14.73;11.18;;;;;;;17.61;85.85;100888.88;5057101;28;20071;-85
2021/07/11 00:59:12;;;;;;;10.10;9.20;;;;;;;17.60;85.83;100882.72;5054133;28;20075;-85
2021/07/11 01:01:49;;;;;;;13.60;12.25;;;;;;;17.58;85.96;100889.00;5072579;28;20043;-85
2021/07/11 01:04:29;;;;;;;13.43;12.02;;;;;;;17.57;86.27;100885.47;5057140;28;20054;-85
2021/07/11 01:07:01;;;;;;;12.40;10.93;;;;;;;17.57;86.10;100876.66;5057561;28;20040;-84
2021/07/11 01:09:36;;;;;;;13.95;12.43;;;;;;;17.56;86.35;100883.75;5074998;28;20046;-85
2021/07/11 01:12:16;;;;;;;14.70;13.18;;;;;;;17.53;86.55;100876.78;5053389;28;20073;-84
2021/07/11 01:14:44;;;;;;;11.27;10.27;;;;;;;17.51;86.41;100875.97;5059222;28;20476;-85
2021/07/11 01:17:12;;;;;;;15.10;12.63;;;;;;;17.50;86.54;100886.59;5070881;28;20442;-85
2021/07/11 01:20:02;;;;;;;11.20;10.20;;;;;;;17.46;86.84;100888.47;5070288;28;20052;-85
2021/07/11 01:22:36;;;;;;;11.25;10.05;;;;;;;17.43;86.88;100885.94;5051886;28;20055;-85
2021/07/11 01:25:09;;;;;;;12.38;10.60;;;;;;;17.39;87.13;100881.69;5071466;28;20036;-85
2021/07/11 01:27:37;;;;;;;14.52;12.60;;;;;;;17.36;87.27;100884.41;5054293;28;20047;-85
2021/07/11 01:30:11;;;;;;;11.57;10.35;;;;;;;17.34;87.59;100888.91;5057206;28;20044;-85
2021/07/11 01:32:40;;;;;;;12.65;10.23;;;;;;;17.32;87.61;100888.09;5073201;28;20059;-85
2021/07/11 01:35:07;;;;;;;12.73;11.48;;;;;;;17.29;87.69;100883.75;5069225;28;20048;-85
2021/07/11 01:37:36;;;;;;;11.68;10.57;;;;;;;17.27;87.91;100890.88;5082542;28;20047;-85
2021/07/11 01:40:08;;;;;;;14.63;13.13;;;;;;;17.25;88.30;100883.91;5057113;28;20402;-85
2021/07/11 01:42:36;;;;;;;14.65;11.82;;;;;;;17.24;88.27;100887.50;5070431;28;20131;-85
2021/07/11 01:45:07;;;;;;;13.05;11.55;;;;;;;17.22;88.37;100884.88;5060975;28;20135;-85
2021/07/11 01:47:35;;;;;;;12.70;11.40;;;;;;;17.24;88.30;100887.50;5068537;28;20058;-85
2021/07/11 01:50:04;;;;;;;12.60;10.93;;;;;;;17.26;88.33;100881.22;5070978;28;20357;-85
2021/07/11 01:52:30;;;;;;;12.30;11.10;;;;;;;17.25;88.14;100878.59;5055684;28;20102;-85
2021/07/11 01:54:57;;;;;;;11.35;10.23;;;;;;;17.25;87.90;100883.91;5054459;28;20044;-85
2021/07/11 01:57:24;;;;;;;16.25;13.70;;;;;;;17.26;88.26;100885.63;5072812;28;20055;-86
2021/07/11 01:59:50;;;;;;;14.95;12.77;;;;;;;17.28;88.40;100886.47;5050216;28;20487;-85
2021/07/11 02:02:17;;;;;;;12.38;11.02;;;;;;;17.28;88.12;100883.81;5068954;28;20044;-85
2021/07/11 02:04:44;;;;;;;13.20;11.65;;;;;;;17.29;88.06;100881.13;5070018;28;20032;-85
2021/07/11 02:07:10;;;;;;;12.90;11.60;;;;;;;17.32;88.12;100880.16;5056717;28;20043;-84
2021/07/11 02:09:37;;;;;;;14.43;12.90;;;;;;;17.34;88.29;100878.34;5052134;28;20048;-85
2021/07/11 02:12:06;;;;;;;13.82;10.68;;;;;;;17.36;88.25;100877.38;5055412;28;20051;-85
2021/07/11 02:14:37;;;;;;;14.27;12.73;;;;;;;17.35;87.84;100872.97;5084287;28;20067;-85
2021/07/11 02:17:13;;;;;;;12.25;11.05;;;;;;;17.34;87.84;100863.31;5085282;28;20648;-85
2021/07/11 02:19:42;;;;;;;13.57;12.20;;;;;;;17.34;87.96;100865.94;5049699;28;20641;-84
2021/07/11 02:22:12;;;;;;;13.63;10.95;;;;;;;17.33;87.87;100866.84;5064770;28;20098;-86
2021/07/11 02:24:42;;;;;;;10.90;9.95;;;;;;;17.30;87.84;100866.97;5084882;28;20074;-85
2021/07/11 02:27:10;;;;;;;11.20;10.20;;;;;;;17.29;87.77;100859.09;5055185;28;20044;-85
2021/07/11 02:29:42;;;;;;;13.40;12.10;;;;;;;17.27;87.85;100866.22;5051638;28;20052;-85
2021/07/11 02:32:11;;;;;;;11.45;10.32;;;;;;;17.25;88.02;100868.91;5055498;28;20560;-85
2021/07/11 02:34:40;;;;;;;15.45;13.85;;;;;;;17.23;88.00;100857.50;5052300;28;20032;-86
2021/07/11 02:37:10;;;;;;;14.93;12.82;;;;;;;17.19;88.25;100859.41;5056111;28;20131;-85
2021/07/11 02:39:40;;;;;;;12.38;11.23;;;;;;;17.15;88.24;100862.19;5050202;28;20047;-85
2021/07/11 02:42:09;;;;;;;12.23;10.75;;;;;;;17.12;88.64;100865.81;5070680;28;20113;-85
2021/07/11 02:44:38;;;;;;;13.73;12.35;;;;;;;17.07;88.70;100867.72;5066829;28;20046;-85
2021/07/11 02:47:11;;;;;;;14.07;11.52;;;;;;;17.01;88.97;100860.00;5065355;28;20051;-85
2021/07/11 02:49:43;;;;;;;14.75;13.07;;;;;;;16.95;89.06;100869.00;5066100;28;20093;-84
2021/07/11 02:52:11;;;;;;;20.38;14.27;;;;;;;16.90;89.36;100859.47;5053958;28;20048;-85
2021/07/11 02:54:42;;;;;;;13.45;12.15;;;;;;;16.83;89.17;100853.47;5085582;28;20044;-85
2021/07/11 02:57:11;;;;;;;13.93;12.50;;;;;;;16.78;89.63;100858.03;5049762;28;20048;-84
2021/07/11 02:59:38;;;;;;;14.85;12.60;;;;;;;16.72;89.96;100858.25;5052248;28;20079;-85
2021/07/11 03:02:08;;;;;;;14.40;12.88;;;;;;;16.65;90.38;100855.78;5052432;28;20040;-84
2021/07/11 03:04:39;;;;;;;12.93;11.15;;;;;;;16.61;90.26;100855.94;5055940;28;20195;-84
2021/07/11 03:07:07;;;;;;;14.82;12.27;;;;;;;16.53;90.82;100854.41;5049006;28;20052;-84
2021/07/11 03:09:35;;;;;;;12.32;11.05;;;;;;;16.49;90.97;100857.16;5065956;28;20044;-84
2021/07/11 03:12:02;;;;;;;13.00;10.55;;;;;;;16.43;91.36;100874.09;5066875;28;20040;-84
2021/07/11 03:14:30;;;;;;;13.98;11.82;;;;;;;16.38;91.73;100871.56;5069664;28;20044;-84
2021/07/11 03:16:59;;;;;;;12.85;11.52;;;;;;;16.36;91.96;100873.41;5044896;28;20052;-84
2021/07/11 03:19:28;;;;;;;13.23;11.70;;;;;;;16.37;92.13;100874.25;5083617;28;20044;-84
2021/07/11 03:21:55;;;;;;;13.25;11.85;;;;;;;16.36;92.08;100869.88;5052643;28;20050;-85
2021/07/11 03:24:28;;;;;;;14.65;12.32;;;;;;;16.38;91.86;100874.22;5052796;28;20040;-84
2021/07/11 03:26:57;;;;;;;14.07;12.65;;;;;;;16.37;92.10;100877.78;5069694;28;20051;-84
2021/07/11 03:29:40;;;;;;;11.43;10.25;;;;;;;16.36;91.89;100868.13;5067977;28;20120;-85
2021/07/11 03:32:10;;;;;;;12.10;10.90;;;;;;;16.32;92.21;100871.78;5071533;28;20513;-84
2021/07/11 03:34:37;;;;;;;13.75;11.70;;;;;;;16.27;92.37;100873.69;5068276;28;20516;-85
2021/07/11 03:37:08;;;;;;;13.90;11.15;;;;;;;16.22;92.78;100886.16;5052034;28;20413;-85
2021/07/11 03:39:39;;;;;;;12.00;10.80;;;;;;;16.18;93.16;100890.66;5068204;28;20051;-85
2021/07/11 03:42:09;;;;;;;12.95;11.15;;;;;;;16.15;93.48;100882.81;5066278;28;20046;-85
2021/07/11 03:44:38;;;;;;;14.75;13.13;;;;;;;16.16;93.81;100878.41;5052099;28;20063;-85
2021/07/11 03:47:10;;;;;;;12.45;10.80;;;;;;;16.17;93.82;100888.91;5050925;28;20419;-84
2021/07/11 03:49:40;;;;;;;13.10;11.80;;;;;;;16.16;93.49;100881.91;5055839;28;20048;-85
2021/07/11 03:52:08;;;;;;;14.50;13.00;;;;;;;16.16;93.58;100881.91;5057841;28;20192;-84
2021/07/11 03:54:39;;;;;;;12.15;10.93;;;;;;;16.15;93.83;100884.59;5053254;28;20605;-85
2021/07/11 03:57:07;;;;;;;14.15;12.65;;;;;;;16.14;93.71;100882.84;5081502;28;20059;-85
2021/07/11 03:59:35;;;;;;;14.40;12.75;;;;;;;16.17;94.18;100891.56;5054112;28;20771;-85
2021/07/11 04:02:06;;;;;;;15.10;13.57;;;;;;;16.20;94.11;100887.97;5055114;28;20505;-84
2021/07/11 04:04:34;;;;;;;13.95;12.57;;;;;;;16.22;93.68;100891.44;5067783;28;20356;-85
2021/07/11 04:07:01;;;;;;;13.18;11.80;;;;;;;16.24;93.40;100888.75;5050777;28;20521;-84
2021/07/11 04:09:29;;;;;;;13.65;12.25;;;;;;;16.25;93.26;100887.84;5067431;28;20040;-85
2021/07/11 04:11:57;;;;;;;16.55;14.48;;;;;;;16.28;93.42;100891.28;5068294;28;20044;-85
2021/07/11 04:14:24;;;;;;;16.48;14.35;;;;;;;16.29;93.05;100892.97;5072297;28;20036;-85
2021/07/11 04:16:57;;;;;;;14.80;13.32;;;;;;;16.33;93.05;100888.47;5066527;28;20036;-85
2021/07/11 04:19:36;;;;;;;15.20;13.52;;;;;;;16.33;93.06;100891.97;5082493;28;20044;-85
2021/07/11 04:22:04;;;;;;;21.10;15.38;;;;;;;16.37;93.12;100893.63;5067131;28;20169;-85
2021/07/11 04:24:31;;;;;;;19.25;15.25;;;;;;;16.41;93.03;100896.19;5052889;28;20068;-85
2021/07/11 04:26:58;;;;;;;16.25;14.77;;;;;;;16.45;92.68;100903.09;5069598;28;20048;-85
2021/07/11 04:29:27;;;;;;;17.17;15.48;;;;;;;16.47;91.94;100894.22;5064849;28;20052;-85
2021/07/11 04:31:53;;;;;;;17.38;14.70;;;;;;;16.51;91.77;100900.28;5053216;28;20123;-85
2021/07/11 04:34:29;;;;;;;16.20;14.18;;;;;;;16.54;91.57;100898.44;5053758;28;20048;-85
2021/07/11 04:37:00;;;;;;;17.42;15.77;;;;;;;16.58;91.07;100901.81;5072168;28;20043;-85
2021/07/11 04:39:27;;;;;;;17.27;15.38;;;;;;;16.63;90.88;100897.25;5070997;28;20040;-85
2021/07/11 04:41:54;;;;;;;16.58;14.88;;;;;;;16.68;90.66;100899.78;5068382;28;20541;-84
2021/07/11 04:44:22;;;;;;;17.55;14.18;;;;;;;16.73;90.28;100903.16;5065455;28;20484;-84
2021/07/11 04:46:48;;;;;;;15.70;14.10;;;;;;;16.77;90.12;100906.56;5049933;28;20143;-85
2021/07/11 04:49:15;;;;;;;13.35;12.13;;;;;;;16.82;89.86;100905.50;5053113;28;20048;-84
2021/07/11 04:51:42;;;;;;;18.17;14.13;;;;;;;16.86;89.54;100904.50;5050677;28;20110;-84
2021/07/11 04:54:09;;;;;;;15.10;13.43;;;;;;;16.91;89.42;100909.69;5070258;28;20044;-84
2021/07/11 04:56:37;;;;;;;15.85;14.15;;;;;;;16.93;89.26;100902.53;5049952;28;20044;-84
2021/07/11 04:59:05;;;;;;;14.27;12.35;;;;;;;16.98;88.79;100911.19;5067553;28;20076;-84
2021/07/11 05:01:31;;;;;;;16.95;13.43;;;;;;;17.03;88.53;100919.84;5053078;28;20048;-84
2021/07/11 05:03:58;;;;;;;14.80;13.32;;;;;;;17.08;88.41;100917.06;5068669;28;20762;-84
2021/07/11 05:06:24;;;;;;;16.27;14.60;;;;;;;17.13;87.97;100909.88;5063113;28;20048;-84
2021/07/11 05:08:51;;;;;;;17.17;15.45;;;;;;;17.21;87.77;100914.91;5066282;28;20040;-85
2021/07/11 05:11:18;;;;;;;18.73;14.40;;;;;;;17.24;87.10;100909.50;5052303;28;20051;-84
2021/07/11 05:13:45;;;;;;;14.95;13.40;;;;;;;17.28;87.08;100911.13;5052841;28;20117;-84
2021/07/11 05:16:12;;;;;;;12.82;11.60;;;;;;;17.33;86.89;100916.28;5052143;28;20521;-84
2021/07/11 05:18:39;;;;;;;13.90;12.50;;;;;;;17.36;86.71;100917.06;5056217;28;20051;-85
2021/07/11 05:21:05;;;;;;;14.77;13.27;;;;;;;17.41;86.57;100923.97;5053526;28;20048;-84
2021/07/11 05:23:31;;;;;;;14.80;13.30;;;;;;;17.45;86.31;100912.38;5087733;28;20135;-84
2021/07/11 05:25:58;;;;;;;13.07;11.70;;;;;;;17.51;86.06;100920.97;5054895;28;20896;-84
2021/07/11 05:28:25;;;;;;;13.80;12.48;;;;;;;17.57;85.86;100919.03;5056227;28;20044;-85
2021/07/11 05:30:51;;;;;;;13.52;12.13;;;;;;;17.63;85.46;100922.31;5071213;28;20486;-84
2021/07/11 05:33:18;;;;;;;13.85;12.45;;;;;;;17.64;85.16;100918.75;5053584;28;20054;-85
2021/07/11 05:35:47;;;;;;;14.18;12.68;;;;;;;17.66;85.06;100909.00;5083894;28;20499;-84
2021/07/11 05:38:14;;;;;;;17.17;13.27;;;;;;;17.71;84.88;100913.25;5059263;28;20056;-85
2021/07/11 05:40:40;;;;;;;15.02;13.38;;;;;;;17.76;84.51;100901.59;5072083;28;20040;-85
2021/07/11 05:43:07;;;;;;;13.77;12.45;;;;;;;17.82;84.44;100905.78;5067257;28;20131;-85
2021/07/11 05:45:34;;;;;;;15.15;13.75;;;;;;;17.85;84.42;100900.41;5056654;28;20047;-86
2021/07/11 05:48:00;;;;;;;15.80;13.95;;;;;;;17.89;84.42;100898.53;5078592;28;20076;-85
2021/07/11 05:50:27;;;;;;;14.85;13.35;;;;;;;17.94;84.19;100908.06;5054461;28;20683;-85
2021/07/11 05:52:54;;;;;;;14.63;13.23;;;;;;;17.98;83.79;100904.38;5054148;28;20424;-85
2021/07/11 05:55:21;;;;;;;15.40;12.95;;;;;;;18.05;83.76;100897.06;5055153;28;20044;-85
2021/07/11 05:57:48;;;;;;;15.60;14.02;;;;;;;18.11;83.38;100894.19;5050760;28;20052;-86
2021/07/11 06:00:18;;;;;;;13.20;11.88;;;;;;;18.17;83.01;100904.56;5050081;28;20044;-85
2021/07/11 06:02:45;;;;;;;13.77;11.90;;;;;;;18.22;82.68;100904.38;5069967;28;20825;-85
2021/07/11 06:05:12;;;;;;;13.10;11.85;;;;;;;18.28;82.56;100906.81;5054389;28;20040;-85
2021/07/11 06:07:39;;;;;;;12.23;10.98;;;;;;;18.38;82.46;100902.03;5087661;28;20048;-85
2021/07/11 06:10:08;;;;;;;12.63;11.45;;;;;;;18.47;82.11;100900.81;5055718;28;20119;-84
2021/07/11 06:12:35;;;;;;;12.95;11.63;;;;;;;18.55;81.73;100898.75;5054478;28;20048;-85
2021/07/11 06:15:03;;;;;;;13.13;11.77;;;;;;;18.65;81.14;100910.72;5052466;28;20044;-84
2021/07/11 06:17:32;;;;;;;10.73;9.82;;;;;;;18.74;80.72;100912.16;5055879;28;20094;-85
2021/07/11 06:20:01;;;;;;;11.82;10.73;;;;;;;18.84;80.85;100916.19;5055121;28;20067;-85
2021/07/11 06:22:28;;;;;;;13.10;11.80;;;;;;;18.94;80.23;100913.19;5056002;28;20040;-85
2021/07/11 06:24:54;;;;;;;14.68;12.45;;;;;;;19.00;79.62;100911.16;5054370;28;20051;-85
2021/07/11 06:27:22;;;;;;;18.48;12.13;;;;;;;19.09;79.34;100903.75;5049835;28;20047;-85
2021/07/11 06:29:49;;;;;;;13.77;11.65;;;;;;;19.17;78.89;100915.78;5049710;28;20055;-86
2021/07/11 06:32:15;;;;;;;16.77;12.57;;;;;;;19.28;78.21;100911.81;5052067;28;20071;-85
2021/07/11 06:34:42;;;;;;;12.10;10.90;;;;;;;19.40;77.65;100916.63;5059671;28;20056;-85
2021/07/11 06:37:08;;;;;;;14.13;11.63;;;;;;;19.50;76.90;100906.47;5055103;28;20126;-85
2021/07/11 06:39:35;;;;;;;12.77;11.48;;;;;;;19.62;76.34;100907.75;5068215;28;20151;-85
2021/07/11 06:42:02;;;;;;;12.43;11.23;;;;;;;19.73;75.63;100908.16;5057630;28;20444;-85
2021/07/11 06:44:29;;;;;;;12.98;11.70;;;;;;;19.83;75.32;100906.84;5071864;28;20040;-85
2021/07/11 06:46:55;;;;;;;13.00;11.73;;;;;;;19.93;74.17;100904.69;5054447;28;20127;-85
2021/07/11 06:49:22;;;;;;;14.40;12.55;;;;;;;20.04;74.15;100914.81;5055073;28;20044;-85
2021/07/11 06:51:48;;;;;;;12.32;11.10;;;;;;;20.15;73.57;100909.00;5070093;28;20052;-85
2021/07/11 06:54:15;;;;;;;12.73;11.40;;;;;;;20.25;72.63;100912.97;5059595;28;20044;-86
2021/07/11 06:56:41;;;;;;;12.80;11.55;;;;;;;20.39;72.37;100916.81;5053324;28;20485;-85
2021/07/11 06:59:08;;;;;;;12.20;11.02;;;;;;;20.53;71.94;100917.03;5055837;28;20044;-85
2021/07/11 07:01:34;;;;;;;12.73;11.43;;;;;;;20.66;71.81;100915.53;5052075;28;20556;-85
2021/07/11 07:04:01;;;;;;;13.20;11.98;;;;;;;20.79;70.89;100921.16;5052578;28;20044;-85
2021/07/11 07:06:28;;;;;;;15.80;13.63;;;;;;;20.90;70.23;100910.00;5056131;28;20521;-86
2021/07/11 07:08:56;;;;;;;10.50;9.52;;;;;;;21.00;70.36;100907.75;5054259;28;20047;-85
2021/07/11 07:11:23;;;;;;;11.32;10.25;;;;;;;21.11;69.56;100908.09;5056822;28;20483;-85
2021/07/11 07:13:49;;;;;;;11.77;10.68;;;;;;;21.21;69.44;100903.19;5059042;28;20052;-85
2021/07/11 07:16:16;;;;;;;11.57;10.38;;;;;;;21.28;68.92;100911.72;5052624;28;20073;-85
2021/07/11 07:18:42;;;;;;;14.20;12.85;;;;;;;21.38;68.16;100907.69;5069617;28;20045;-85
2021/07/11 07:21:09;;;;;;;14.40;12.93;;;;;;;21.46;67.39;100902.81;5070697;28;20039;-85
2021/07/11 07:23:36;;;;;;;16.73;14.93;;;;;;;21.57;66.62;100914.75;5069261;28;20090;-85
2021/07/11 07:26:03;;;;;;;14.88;13.32;;;;;;;21.72;65.83;100913.09;5070194;28;20670;-84
2021/07/11 07:28:29;;;;;;;18.23;16.33;;;;;;;21.95;63.96;100911.91;5085445;28;20040;-86
2021/07/11 07:30:56;;;;;;;15.55;14.05;;;;;;;22.25;62.63;100913.88;5050043;28;20048;-85
2021/07/11 07:33:22;;;;;;;14.60;13.10;;;;;;;22.69;61.30;100921.28;5055622;28;20063;-86
2021/07/11 07:35:52;;;;;;;13.25;11.95;;;;;;;23.14;59.89;100913.47;5054762;28;20119;-85
2021/07/11 07:38:18;;;;;;;13.98;11.68;;;;;;;23.69;58.42;100908.47;5067725;28;20101;-86
2021/07/11 07:40:45;;;;;;;13.73;12.32;;;;;;;24.28;56.92;100901.28;5069170;28;20044;-86
2021/07/11 07:43:13;;;;;;;12.80;10.90;;;;;;;24.91;55.25;100893.78;5052959;28;20044;-84
2021/07/11 07:45:43;;;;;;;11.13;10.02;;;;;;;25.45;53.67;100900.06;5084813;28;20105;-85
2021/07/11 07:48:11;;;;;;;11.70;10.63;;;;;;;25.86;52.47;100907.06;5056439;28;20460;-85
2021/07/11 07:50:38;;;;;;;11.32;10.23;;;;;;;26.23;50.91;100900.97;5040066;28;20712;-86
2021/07/11 07:53:06;;;;;;;10.82;9.93;;;;;;;26.61;49.75;100897.38;5053447;28;20067;-84
2021/07/11 07:55:34;;;;;;;11.40;10.32;;;;;;;26.69;48.62;100897.66;5067052;28;20051;-84
2021/07/11 07:58:02;;;;;;;10.05;9.25;;;;;;;26.77;48.22;100907.03;5051962;28;20074;-85
2021/07/11 08:00:29;;;;;;;10.32;9.43;;;;;;;26.82;47.48;100908.38;5085657;28;20044;-84
2021/07/11 08:02:56;;;;;;;10.57;9.55;;;;;;;27.06;47.18;100912.91;5056335;28;20052;-84
2021/07/11 08:05:22;;;;;;;10.75;9.90;;;;;;;27.34;46.73;100909.00;5071584;28;20043;-87
2021/07/11 08:07:49;;;;;;;11.75;10.55;;;;;;;27.69;46.39;100910.84;5053588;28;20048;-85
2021/07/11 08:10:19;;;;;;;12.35;11.15;;;;;;;28.02;45.14;100911.91;5054237;28;20790;-86
2021/07/11 08:12:51;;;;;;;10.13;9.23;;;;;;;28.43;44.09;100901.50;5069712;28;20044;-86
2021/07/11 08:15:19;;;;;;;9.15;8.32;;;;;;;28.71;42.93;100897.44;5069749;28;20123;-84
2021/07/11 08:17:48;;;;;;;8.93;8.25;;;;;;;29.13;42.07;100896.69;5050091;28;20064;-84
2021/07/11 08:20:18;;;;;;;8.15;7.45;;;;;;;29.31;41.45;100904.28;5069896;28;20417;-86
2021/07/11 08:22:45;;;;;;;8.95;8.25;;;;;;;29.33;41.63;100904.97;5087023;28;20047;-85
2021/07/11 08:25:12;;;;;;;10.43;8.70;;;;;;;29.24;41.50;100906.56;5051375;28;20189;-85
2021/07/11 08:27:41;;;;;;;8.38;7.65;;;;;;;29.36;40.74;100908.28;5067750;28;20044;-85
2021/07/11 08:30:11;;;;;;;8.75;7.95;;;;;;;29.53;40.98;100906.84;5047229;28;20051;-85
2021/07/11 08:32:39;;;;;;;8.20;7.60;;;;;;;29.64;40.94;100902.38;5053469;28;20077;-84
2021/07/11 08:35:07;;;;;;;15.73;9.02;;;;;;;29.73;40.49;100909.66;5053581;28;20040;-85
2021/07/11 08:37:34;;;;;;;9.77;8.90;;;;;;;29.78;40.45;100907.41;5066627;28;20489;-84
2021/07/11 08:40:00;;;;;;;10.13;9.10;;;;;;;30.07;39.54;100911.31;5057249;28;20044;-86
2021/07/11 08:42:27;;;;;;;7.68;7.03;;;;;;;30.48;39.18;100909.50;5053933;28;20033;-84
2021/07/11 08:44:54;;;;;;;9.88;8.88;;;;;;;30.98;38.45;100914.84;5063973;28;20116;-84
2021/07/11 08:47:21;;;;;;;10.02;9.13;;;;;;;31.24;37.11;100918.88;5098120;28;20671;-86
2021/07/11 08:49:49;;;;;;;8.60;7.47;;;;;;;31.41;36.40;100915.47;5070173;28;20766;-84
2021/07/11 08:52:16;;;;;;;6.95;6.35;;;;;;;31.66;36.04;100913.19;5054742;28;20048;-84
2021/07/11 08:54:43;;;;;;;7.30;6.80;;;;;;;32.35;35.01;100910.28;5053101;28;20048;-86
2021/07/11 08:57:11;;;;;;;7.15;6.65;;;;;;;32.97;33.94;100911.34;5072485;28;20048;-85
2021/07/11 08:59:40;;;;;;;7.32;6.70;;;;;;;33.15;33.66;100914.06;5055857;28;20044;-84
2021/07/11 09:02:08;;;;;;;7.05;6.45;;;;;;;32.93;34.08;100922.66;5073261;28;20036;-85
2021/07/11 09:04:46;;;;;;;7.90;7.28;;;;;;;31.77;33.83;100923.84;5054628;28;20101;-84
2021/07/11 09:07:23;;;;;;;7.00;6.15;;;;;;;32.05;34.07;100923.91;5076769;28;20039;-85
2021/07/11 09:09:56;;;;;;;6.50;6.10;;;;;;;32.48;32.75;100924.34;5055102;28;20519;-86
2021/07/11 09:12:23;;;;;;;;;;;;;;;32.61;33.16;100926.69;5069997;28;20044;-85
2021/07/11 09:14:52;;;;;;;6.60;5.55;;;;;;;32.26;33.63;100929.13;5057823;28;20447;-86
2021/07/11 09:17:20;;;;;;;7.25;6.70;;;;;;;31.85;34.07;100928.53;5067514;28;20045;-87
2021/07/11 09:19:53;;;;;;;7.90;6.72;;;;;;;31.99;33.89;100924.50;5084093;28;20044;-86
2021/07/11 09:22:25;;;;;;;7.32;6.70;;;;;;;31.75;33.69;100930.41;5103571;27;20040;-86
2021/07/11 09:24:57;;;;;;;6.63;5.70;;;;;;;31.18;35.11;100926.59;5070413;28;20071;-83
2021/07/11 09:27:27;;;;;;;7.10;6.35;;;;;;;31.02;35.07;100929.78;5072844;28;20060;-86
2021/07/11 09:30:00;;;;;;;7.70;7.00;;;;;;;30.52;36.13;100924.47;5070038;28;20438;-86
2021/07/11 09:32:33;;;;;;;8.70;8.05;;;;;;;30.08;37.39;100937.28;5074081;28;20772;-85
2021/07/11 09:35:11;;;;;;;9.15;8.27;;;;;;;29.58;38.18;100937.94;5059764;28;20044;-85
2021/07/11 09:37:40;;;;;;;8.57;7.88;;;;;;;29.20;39.63;100929.38;5087062;28;20036;-84
2021/07/11 09:40:09;;;;;;;10.93;9.00;;;;;;;28.94;40.22;100937.78;5070920;28;20376;-83
2021/07/11 09:42:39;;;;;;;10.05;9.23;;;;;;;28.67;40.78;100938.25;5055862;28;20055;-84
2021/07/11 09:45:30;;;;;;;9.10;8.30;;;;;;;28.65;41.53;100935.66;5056141;28;20052;-84
2021/07/11 09:48:08;;;;;;;10.02;9.13;;;;;;;29.01;40.62;100936.31;5053229;28;20040;-83
2021/07/11 09:50:35;;;;;;;8.30;7.60;;;;;;;29.36;39.98;100923.63;5070509;28;20481;-86
2021/07/11 09:53:06;;;;;;;7.20;6.55;;;;;;;29.89;39.10;100929.97;5085500;28;20062;-84
2021/07/11 09:55:36;;;;;;;7.57;6.88;;;;;;;31.16;36.89;100935.84;5055553;28;20040;-84
2021/07/11 09:58:06;;;;;;;8.45;7.75;;;;;;;31.56;36.25;100936.66;5055421;28;20040;-84
2021/07/11 10:00:39;;;;;;;7.50;6.90;;;;;;;31.24;36.28;100935.09;5056880;28;20040;-84
2021/07/11 10:03:12;;;;;;;7.90;7.30;;;;;;;30.61;37.02;100931.72;5073504;28;20051;-84
2021/07/11 10:05:40;;;;;;;;;;;;;;;29.76;38.71;100925.56;5052594;28;20090;-84
2021/07/11 10:08:07;;;;;;;7.60;7.00;;;;;;;29.20;39.95;100924.00;5087232;28;19959;-84
2021/07/11 10:10:36;;;;;;;8.15;7.63;;;;;;;28.30;41.55;100925.00;5054520;28;20631;-84
2021/07/11 10:13:06;;;;;;;9.68;8.02;;;;;;;27.78;42.80;100932.63;5083026;28;20498;-84
2021/07/11 10:15:35;;;;;;;8.73;7.85;;;;;;;27.19;44.21;100935.19;5051503;28;20036;-85
2021/07/11 10:18:08;;;;;;;9.32;8.20;;;;;;;26.95;44.75;100937.00;5058294;28;20036;-84
2021/07/11 10:20:43;;;;;;;8.90;8.05;;;;;;;26.74;45.61;100935.81;5056572;28;20040;-85
2021/07/11 10:23:10;;;;;;;8.50;7.72;;;;;;;26.51;46.61;100931.22;5067321;28;20054;-86
2021/07/11 10:25:39;;;;;;;8.73;8.07;;;;;;;26.15;48.37;100924.81;5070204;28;20122;-85
2021/07/11 10:28:14;;;;;;;9.60;8.68;;;;;;;26.02;49.65;100931.03;5051531;28;20072;-86
2021/07/11 10:30:45;;;;;;;9.18;8.40;;;;;;;25.90;49.32;100934.53;5072355;28;20097;-86
2021/07/11 10:33:15;;;;;;;8.80;8.10;;;;;;;25.78;49.50;100935.41;5057135;28;20406;-86
2021/07/11 10:36:06;;;;;;;10.18;9.20;;;;;;;25.66;50.19;100942.47;5066685;28;20068;-85
2021/07/11 10:38:51;;;;;;;10.23;9.23;;;;;;;25.53;50.54;100943.28;5053185;28;20490;-87
2021/07/11 10:41:27;;;;;;;10.05;9.13;;;;;;;25.49;50.78;100946.25;5069603;28;20055;-85
2021/07/11 10:44:11;;;;;;;9.70;8.77;;;;;;;25.46;50.96;100946.47;5071750;28;20055;-86
2021/07/11 10:46:41;;;;;;;10.50;8.43;;;;;;;25.44;50.71;100943.91;5072178;28;20055;-84
2021/07/11 10:49:22;;;;;;;9.05;8.23;;;;;;;25.50;50.57;100938.13;5066154;28;20048;-86
2021/07/11 10:51:56;;;;;;;8.43;7.60;;;;;;;25.68;50.08;100933.34;5054531;28;20048;-86
2021/07/11 10:54:28;;;;;;;8.35;7.18;;;;;;;25.74;49.81;100937.44;5054330;28;20110;-87
2021/07/11 10:57:05;;;;;;;8.75;7.93;;;;;;;25.71;49.54;100940.34;5054974;28;20048;-85
2021/07/11 10:59:42;;;;;;;7.57;6.97;;;;;;;25.80;49.33;100939.69;5053736;28;20044;-83
2021/07/11 11:02:20;;;;;;;7.43;6.65;;;;;;;26.01;48.14;100937.34;5067621;28;20046;-84
2021/07/11 11:05:02;;;;;;;6.88;6.20;;;;;;;26.28;47.70;100939.06;5070078;28;20048;-86
2021/07/11 11:07:49;;;;;;;6.30;5.70;;;;;;;26.41;46.12;100937.25;5053002;28;20113;-87
2021/07/11 11:10:37;;;;;;;6.50;6.00;;;;;;;26.76;45.50;100933.00;5052961;28;20052;-86
2021/07/11 11:13:10;;;;;;;6.22;5.72;;;;;;;27.34;44.00;100941.25;5059482;28;20052;-85
2021/07/11 11:15:49;;;;;;;6.63;6.13;;;;;;;27.78;43.18;100933.47;5069330;28;20105;-87
2021/07/11 11:18:30;;;;;;;6.88;6.25;;;;;;;28.21;42.63;100930.16;5066733;28;20040;-86
2021/07/11 11:21:03;;;;;;;7.13;6.63;;;;;;;28.70;41.50;100932.59;5068004;28;20055;-86
2021/07/11 11:23:38;;;;;;;6.70;6.20;;;;;;;29.82;40.18;100924.22;5051667;28;20051;-86